Time;durP1;ratioP1;P1;durP2;ratioP2;P2;SDS_P1;SDS_P2;PMS_P1;PMS_P2;Temp;Humidity;BMP_temperature;BMP_pressure;BME280_temperature;BME280_humidity;BME280_pressure;Samples;Min_cycle;Max_cycle;Signal;HPM_P1;HPM_P2
2022/01/01 00:03:50;;;;;;;5.40;4.60;;;;;;;8.97;94.67;99100.84;418857;1316;141160;-62
2022/01/01 00:13:56;;;;;;;5.10;4.60;;;;;;;8.97;94.79;99107.81;423319;1318;141312;-62
2022/01/01 00:24:06;;;;;;;5.40;4.70;;;;;;;8.99;94.83;99111.91;424920;1324;151331;-62
2022/01/01 00:34:12;;;;;;;6.20;5.60;;;;;;;9.01;94.86;99115.45;425773;1318;144167;-63
2022/01/01 00:44:18;;;;;;;6.80;5.40;;;;;;;9.02;94.78;99116.41;425470;1325;141723;-63
2022/01/01 00:54:24;;;;;;;7.50;5.80;;;;;;;9.02;94.87;99131.95;424875;1324;162785;-63
2022/01/01 01:04:30;;;;;;;6.20;5.50;;;;;;;9.01;94.85;99149.66;425891;1324;143020;-62
2022/01/01 01:14:40;;;;;;;6.50;5.40;;;;;;;9.00;94.81;99159.83;425727;1325;141032;-62
2022/01/01 01:24:46;;;;;;;7.00;5.20;;;;;;;9.03;94.69;99169.80;425080;1325;145461;-62
2022/01/01 01:34:52;;;;;;;5.90;5.20;;;;;;;9.02;94.67;99185.55;425486;1326;142126;-62
2022/01/01 01:45:00;;;;;;;6.20;5.70;;;;;;;9.01;94.88;99200.10;425449;1324;140961;-62
2022/01/01 01:55:09;;;;;;;7.20;6.50;;;;;;;8.98;94.87;99200.61;422501;1311;141227;-62
2022/01/01 02:05:15;;;;;;;6.60;4.60;;;;;;;8.96;94.96;99196.08;425332;1324;142015;-63
2022/01/01 02:15:41;;;;;;;5.70;4.60;;;;;;;8.96;95.12;99200.05;424617;1324;145868;-63
2022/01/01 02:25:49;;;;;;;6.10;5.40;;;;;;;8.96;95.09;99204.74;423486;1311;141011;-62
2022/01/01 02:35:55;;;;;;;8.20;6.00;;;;;;;8.96;95.27;99205.98;425463;1324;143007;-63
2022/01/01 02:46:01;;;;;;;6.60;5.50;;;;;;;8.95;95.08;99213.02;424798;1324;142213;-63
2022/01/01 02:56:07;;;;;;;6.00;5.40;;;;;;;8.94;95.36;99214.16;413001;1313;141862;-62
2022/01/01 03:06:19;;;;;;;5.30;4.40;;;;;;;8.91;95.41;99234.59;412587;1312;142376;-64
2022/01/01 03:16:24;;;;;;;5.70;4.50;;;;;;;8.89;95.44;99239.46;425822;1324;141097;-68
2022/01/01 03:26:30;;;;;;;5.80;4.40;;;;;;;8.87;95.64;99240.59;425756;1324;142444;-68
2022/01/01 03:36:36;;;;;;;5.60;5.10;;;;;;;8.89;95.65;99248.88;424922;1324;141080;-69
2022/01/01 03:46:42;;;;;;;7.20;4.60;;;;;;;8.89;95.84;99255.86;420778;1312;199206;-69
2022/01/01 03:56:48;;;;;;;4.20;3.60;;;;;;;8.88;96.11;99274.59;413144;1311;141272;-69
2022/01/01 04:06:54;;;;;;;3.00;2.80;;;;;;;8.85;96.30;99289.63;424671;1316;142147;-69
2022/01/01 04:17:00;;;;;;;2.80;1.60;;;;;;;8.84;96.51;99305.75;425509;1320;143077;-70
2022/01/01 04:27:07;;;;;;;2.00;1.50;;;;;;;8.87;96.55;99312.54;424868;1325;154937;-69
2022/01/01 04:37:15;;;;;;;1.60;1.30;;;;;;;8.86;96.45;99320.09;425845;1324;199149;-69
2022/01/01 04:47:21;;;;;;;2.90;2.20;;;;;;;8.78;96.50;99327.03;425741;1324;142662;-69
2022/01/01 04:57:30;;;;;;;2.00;1.80;;;;;;;8.73;96.44;99335.02;424875;1324;141715;-69
2022/01/01 05:07:36;;;;;;;2.20;1.70;;;;;;;8.69;96.55;99354.98;424563;1311;141207;-69
2022/01/01 05:17:41;;;;;;;1.70;1.50;;;;;;;8.70;96.56;99364.50;425519;1321;141616;-69
2022/01/01 05:27:47;;;;;;;1.80;1.70;;;;;;;8.72;96.62;99376.42;424852;1323;142830;-69
2022/01/01 05:37:53;;;;;;;2.20;2.00;;;;;;;8.74;96.63;99392.91;425569;1324;140900;-68
2022/01/01 05:47:59;;;;;;;2.10;1.80;;;;;;;8.73;96.25;99394.20;425682;1324;142224;-69
2022/01/01 05:58:05;;;;;;;1.60;1.50;;;;;;;8.71;95.92;99406.17;425806;1321;141237;-69
2022/01/01 06:08:11;;;;;;;1.90;1.50;;;;;;;8.66;95.58;99416.23;425788;1324;141215;-68
2022/01/01 06:18:17;;;;;;;1.60;1.50;;;;;;;8.62;95.47;99423.63;425142;1324;142355;-68
2022/01/01 06:28:23;;;;;;;1.30;1.20;;;;;;;8.58;95.61;99428.58;425813;1324;142328;-68
2022/01/01 06:38:28;;;;;;;1.80;1.60;;;;;;;8.53;95.67;99447.48;425797;1320;141319;-68
2022/01/01 06:48:34;;;;;;;1.50;1.40;;;;;;;8.50;95.98;99455.83;424385;1316;141497;-68
2022/01/01 06:58:40;;;;;;;1.80;1.70;;;;;;;8.49;96.01;99464.80;420364;1311;140929;-69
2022/01/01 07:08:46;;;;;;;2.10;1.90;;;;;;;8.52;96.18;99469.20;425117;1324;141351;-69
2022/01/01 07:18:52;;;;;;;2.10;1.90;;;;;;;8.57;96.02;99482.89;423994;1318;142149;-69
2022/01/01 07:28:58;;;;;;;1.90;1.80;;;;;;;8.62;95.97;99496.90;416962;1311;141904;-69
2022/01/01 07:39:04;;;;;;;2.60;1.80;;;;;;;8.68;95.82;99513.29;425065;1321;142100;-68
2022/01/01 07:49:10;;;;;;;1.80;1.70;;;;;;;8.75;96.10;99523.01;425463;1324;141062;-70
2022/01/01 07:59:16;;;;;;;2.40;2.20;;;;;;;8.82;95.90;99527.14;424474;1318;141525;-69
2022/01/01 08:09:21;;;;;;;3.60;1.90;;;;;;;8.89;95.77;99530.61;414673;1311;141344;-69
2022/01/01 08:19:27;;;;;;;1.80;1.20;;;;;;;8.90;95.81;99533.86;422241;1311;141614;-69
2022/01/01 08:29:33;;;;;;;1.20;0.90;;;;;;;8.80;95.89;99541.40;425763;1318;142035;-70
2022/01/01 08:39:39;;;;;;;1.10;0.90;;;;;;;8.80;96.19;99558.18;424771;1324;142173;-69
2022/01/01 08:49:46;;;;;;;1.30;0.80;;;;;;;8.86;95.99;99570.75;425466;1320;142520;-68
2022/01/01 08:59:52;;;;;;;0.50;0.50;;;;;;;8.92;95.96;99582.29;425608;1321;141627;-69
2022/01/01 09:09:59;;;;;;;1.40;1.30;;;;;;;8.92;96.03;99592.75;425133;1324;141728;-68
2022/01/01 09:20:06;;;;;;;2.10;2.00;;;;;;;8.93;96.13;99597.77;421864;1311;141432;-68
2022/01/01 09:30:13;;;;;;;2.20;2.00;;;;;;;9.03;96.43;99592.48;424451;1305;141534;-68
2022/01/01 09:40:19;;;;;;;3.00;2.60;;;;;;;9.20;96.31;99601.50;419114;1311;140875;-69
2022/01/01 09:50:25;;;;;;;3.00;2.70;;;;;;;9.29;96.10;99608.29;414290;1311;140938;-69
2022/01/01 10:00:31;;;;;;;2.30;2.10;;;;;;;9.29;96.16;99617.75;421845;1311;141080;-69
2022/01/01 10:10:41;;;;;;;2.60;2.40;;;;;;;9.32;96.35;99626.12;421923;1311;141406;-68
2022/01/01 10:20:55;;;;;;;3.90;2.90;;;;;;;9.33;96.24;99630.98;425844;1324;141665;-69
2022/01/01 10:31:01;;;;;;;3.10;2.80;;;;;;;9.43;96.12;99635.11;417085;1311;141450;-69
2022/01/01 10:41:10;;;;;;;4.40;2.90;;;;;;;9.66;95.60;99638.30;413297;1311;141238;-68
2022/01/01 10:51:18;;;;;;;3.30;2.20;;;;;;;9.57;95.09;99638.96;424771;1324;142338;-68
2022/01/01 11:01:24;;;;;;;2.40;2.20;;;;;;;9.48;95.08;99649.99;425505;1324;141740;-69
2022/01/01 11:11:31;;;;;;;2.60;2.40;;;;;;;9.52;95.10;99655.36;425828;1324;143097;-58
2022/01/01 11:21:38;;;;;;;2.90;2.70;;;;;;;9.73;95.02;99663.93;422261;1312;141537;-59
2022/01/01 11:31:46;;;;;;;3.40;2.60;;;;;;;9.85;94.38;99672.84;422263;1311;141781;-60
2022/01/01 11:41:53;;;;;;;2.70;2.40;;;;;;;9.73;94.26;99679.48;425692;1318;142070;-59
2022/01/01 11:52:00;;;;;;;1.70;1.60;;;;;;;9.80;94.57;99679.75;424899;1324;200242;-59
2022/01/01 12:02:27;;;;;;;2.50;1.90;;;;;;;9.86;94.12;99697.95;425652;1322;142135;-59
2022/01/01 12:12:39;;;;;;;3.00;1.80;;;;;;;9.76;94.01;99705.54;425113;1324;144524;-63
2022/01/01 12:22:46;;;;;;;3.60;2.40;;;;;;;9.64;93.80;99696.93;425929;1321;141998;-58
2022/01/01 12:32:55;;;;;;;5.30;2.70;;;;;;;9.66;93.51;99696.81;425601;1321;142476;-58
2022/01/01 12:43:10;;;;;;;3.50;2.20;;;;;;;9.63;93.72;99709.24;417962;1311;141897;-58
2022/01/01 12:53:56;;;;;;;2.80;2.20;;;;;;;9.59;93.65;99722.40;432786;1309;601597;-58
2022/01/01 13:04:06;;;;;;;3.50;2.30;;;;;;;9.43;93.87;99731.73;442305;1282;142064;-58
2022/01/01 13:14:13;;;;;;;3.70;2.50;;;;;;;9.31;94.23;99747.42;447556;1268;141581;-59
2022/01/01 13:24:18;;;;;;;2.80;2.60;;;;;;;9.24;94.37;99772.05;429994;1270;140947;-60
2022/01/01 13:34:25;;;;;;;3.30;3.00;;;;;;;9.16;94.70;99789.42;447232;1270;141077;-58
2022/01/01 13:44:37;;;;;;;2.70;2.50;;;;;;;9.10;94.54;99804.43;447485;1270;142875;-58
2022/01/01 13:54:43;;;;;;;2.80;2.50;;;;;;;9.04;94.15;99823.29;442300;1270;141766;-58
2022/01/01 14:04:57;;;;;;;2.00;1.80;;;;;;;8.93;93.68;99841.34;434275;1269;140791;-59
2022/01/01 14:15:07;;;;;;;3.60;3.30;;;;;;;8.80;93.22;99855.77;428675;1270;140551;-58
2022/01/01 14:25:15;;;;;;;2.40;2.20;;;;;;;8.72;93.44;99872.80;447149;1270;140930;-58
2022/01/01 14:35:21;;;;;;;2.50;2.30;;;;;;;8.62;93.39;99891.98;441369;1270;140970;-58
2022/01/01 14:45:28;;;;;;;6.00;3.80;;;;;;;8.53;93.41;99917.55;446457;1270;141553;-59
2022/01/01 14:55:45;;;;;;;4.90;4.00;;;;;;;8.35;93.25;99926.94;447104;1270;185053;-59
2022/01/01 15:05:57;;;;;;;4.60;4.20;;;;;;;8.14;92.81;99945.38;447144;1270;141323;-58
2022/01/01 15:16:05;;;;;;;6.40;4.70;;;;;;;7.98;92.84;99970.02;447095;1270;142408;-70
2022/01/01 15:26:15;;;;;;;6.60;5.90;;;;;;;7.87;92.97;99986.23;432398;1270;151089;-70
2022/01/01 15:36:26;;;;;;;5.60;5.10;;;;;;;7.76;92.71;99992.14;445217;1270;142145;-70
2022/01/01 15:46:33;;;;;;;7.30;6.60;;;;;;;7.63;92.78;100006.15;447415;1270;141157;-69
2022/01/01 15:56:54;;;;;;;8.40;7.00;;;;;;;7.54;93.01;100011.55;447332;1270;141262;-69
2022/01/01 16:07:05;;;;;;;7.00;6.10;;;;;;;7.46;92.95;100016.14;446620;1270;143649;-69
2022/01/01 16:17:21;;;;;;;8.20;6.70;;;;;;;7.38;92.75;100031.63;447243;1270;141482;-69
2022/01/01 16:27:28;;;;;;;8.00;5.80;;;;;;;7.31;92.33;100036.98;444597;1270;140992;-70
2022/01/01 16:37:34;;;;;;;9.00;6.60;;;;;;;7.24;92.19;100043.73;445970;1271;142386;-69
2022/01/01 16:47:46;;;;;;;9.70;7.10;;;;;;;7.22;91.99;100053.55;439879;1270;141594;-64
2022/01/01 16:58:00;;;;;;;14.10;6.60;;;;;;;7.18;92.07;100066.46;446520;1270;143053;-65
2022/01/01 17:08:06;;;;;;;7.00;6.30;;;;;;;7.12;91.84;100074.48;444009;1271;142372;-66
2022/01/01 17:18:26;;;;;;;10.60;8.80;;;;;;;7.12;91.93;100084.25;446371;1271;141493;-65
2022/01/01 17:28:40;;;;;;;14.50;10.10;;;;;;;7.15;92.08;100091.42;447399;1270;142392;-67
2022/01/01 17:49:22;;;;;;;11.90;9.50;;;;;;;7.15;91.96;100106.96;447402;1270;141982;-70
2022/01/01 17:59:29;;;;;;;11.70;8.80;;;;;;;7.15;91.86;100116.34;446388;1271;141708;-70
2022/01/01 18:09:41;;;;;;;10.90;8.70;;;;;;;7.10;91.78;100121.39;446235;1271;142139;-69
2022/01/01 18:19:49;;;;;;;11.30;7.70;;;;;;;7.04;91.40;100139.44;447373;1270;141753;-69
2022/01/01 18:29:58;;;;;;;8.40;6.30;;;;;;;6.92;91.19;100146.50;447037;1271;141998;-69
2022/01/01 18:40:07;;;;;;;11.50;7.90;;;;;;;6.86;91.28;100152.33;447255;1270;143232;-69
2022/01/01 18:50:14;;;;;;;7.80;6.10;;;;;;;6.78;91.30;100160.30;446601;1271;141689;-70
2022/01/01 19:00:20;;;;;;;9.50;5.40;;;;;;;6.73;91.37;100166.58;442136;1271;141567;-69
2022/01/01 19:10:30;;;;;;;10.00;6.60;;;;;;;6.69;91.54;100176.12;437556;1271;142568;-70
2022/01/01 19:20:39;;;;;;;12.90;5.50;;;;;;;6.68;91.56;100191.12;438361;1271;141873;-73
2022/01/01 19:30:45;;;;;;;10.00;6.60;;;;;;;6.69;91.83;100198.92;446228;1271;141680;-69
2022/01/01 19:41:00;;;;;;;13.60;8.30;;;;;;;6.68;91.63;100209.40;447027;1271;142868;-70
2022/01/01 19:51:05;;;;;;;12.90;8.00;;;;;;;6.60;91.71;100212.81;442669;1271;163029;-69
2022/01/01 20:01:11;;;;;;;13.20;8.40;;;;;;;6.53;91.75;100213.45;443778;1271;141443;-71
2022/01/01 20:11:17;;;;;;;16.40;12.30;;;;;;;6.51;92.00;100210.91;446977;1271;140945;-70
2022/01/01 20:21:25;;;;;;;17.10;11.40;;;;;;;6.50;92.03;100214.59;433536;1273;141067;-69
2022/01/01 20:31:31;;;;;;;15.00;10.70;;;;;;;6.42;92.13;100217.48;438348;1271;141626;-70
2022/01/01 20:41:37;;;;;;;22.80;16.90;;;;;;;6.40;92.31;100216.88;447036;1271;143474;-70
2022/01/01 20:51:43;;;;;;;28.20;20.00;;;;;;;6.37;92.30;100216.95;446295;1271;142184;-70
2022/01/01 21:02:01;;;;;;;24.80;18.30;;;;;;;6.38;92.37;100215.34;446942;1273;142818;-70
2022/01/01 21:12:12;;;;;;;28.20;19.70;;;;;;;6.44;92.47;100224.90;445904;1273;142730;-70
2022/01/01 21:22:18;;;;;;;22.40;19.00;;;;;;;6.40;92.39;100215.27;446795;1271;140677;-69
2022/01/01 21:32:24;;;;;;;35.60;24.10;;;;;;;6.34;92.47;100204.20;446756;1271;142718;-70
2022/01/01 21:42:30;;;;;;;36.70;23.40;;;;;;;6.36;92.53;100214.41;446269;1272;141359;-70
2022/01/01 21:52:35;;;;;;;38.60;24.10;;;;;;;6.37;92.54;100220.45;447207;1270;142154;-70
2022/01/01 22:02:41;;;;;;;49.00;30.90;;;;;;;6.32;92.64;100216.81;447444;1270;141628;-70
2022/01/01 22:12:47;;;;;;;50.50;31.00;;;;;;;6.27;92.80;100209.33;444419;1270;141736;-70
2022/01/01 22:22:53;;;;;;;51.80;33.10;;;;;;;6.25;92.84;100216.88;447359;1270;140849;-70
2022/01/01 22:32:59;;;;;;;56.50;33.80;;;;;;;6.24;92.88;100221.61;447445;1270;141016;-71
2022/01/01 22:43:05;;;;;;;49.60;31.90;;;;;;;6.25;92.96;100225.41;447061;1271;141802;-71
2022/01/01 22:53:10;;;;;;;42.60;26.20;;;;;;;6.21;92.90;100214.23;447077;1271;141665;-71
2022/01/01 23:03:17;;;;;;;30.90;20.00;;;;;;;6.19;92.95;100208.07;446256;1271;142113;-72
2022/01/01 23:13:23;;;;;;;29.20;21.40;;;;;;;6.09;92.93;100196.73;447123;1271;141527;-70
2022/01/01 23:23:29;;;;;;;26.10;19.40;;;;;;;6.03;93.01;100198.86;440401;1273;140834;-71
2022/01/01 23:33:38;;;;;;;26.10;19.00;;;;;;;5.92;92.80;100193.33;446337;1271;142236;-71
2022/01/01 23:43:44;;;;;;;29.60;19.70;;;;;;;5.79;92.75;100184.73;447125;1271;142749;-71
2022/01/01 23:54:00;;;;;;;23.20;16.30;;;;;;;5.68;92.89;100182.64;447139;1270;143515;-61
